sensor_id;sensor_type;location;lat;lon;timestamp;P1;durP1;ratioP1;P2;durP2;ratioP2
50363;SDS011;36272;59.400;17.982;2023-02-28T00:50:22;2.38;;;1.30;;
50363;SDS011;36272;59.400;17.982;2023-02-28T00:55:31;4.82;;;1.10;;
50363;SDS011;36272;59.400;17.982;2023-02-28T01:00:32;2.58;;;1.17;;
50363;SDS011;36272;59.400;17.982;2023-02-28T01:05:42;1.83;;;1.10;;
50363;SDS011;36272;59.400;17.982;2023-02-28T01:10:44;3.17;;;1.55;;
50363;SDS011;36272;59.400;17.982;2023-02-28T01:15:49;2.17;;;1.35;;
50363;SDS011;36272;59.400;17.982;2023-02-28T01:21:03;1.90;;;1.00;;
50363;SDS011;36272;59.400;17.982;2023-02-28T01:31:17;1.88;;;1.20;;
50363;SDS011;36272;59.400;17.982;2023-02-28T01:36:25;2.25;;;1.30;;
50363;SDS011;36272;59.400;17.982;2023-02-28T01:41:31;3.47;;;1.40;;
50363;SDS011;36272;59.400;17.982;2023-02-28T01:46:38;3.42;;;1.40;;
50363;SDS011;36272;59.400;17.982;2023-02-28T01:51:43;1.85;;;1.17;;
50363;SDS011;36272;59.400;17.982;2023-02-28T01:56:57;2.10;;;0.90;;
50363;SDS011;36272;59.400;17.982;2023-02-28T02:02:24;1.13;;;0.77;;
50363;SDS011;36272;59.400;17.982;2023-02-28T02:07:33;3.65;;;1.20;;
50363;SDS011;36272;59.400;17.982;2023-02-28T02:40:59;2.55;;;1.10;;
50363;SDS011;36272;59.400;17.982;2023-02-28T02:51:18;4.45;;;1.08;;
50363;SDS011;36272;59.400;17.982;2023-02-28T02:56:25;1.63;;;0.70;;
50363;SDS011;36272;59.400;17.982;2023-02-28T03:01:42;2.03;;;0.98;;
50363;SDS011;36272;59.400;17.982;2023-02-28T03:06:47;2.10;;;1.05;;
50363;SDS011;36272;59.400;17.982;2023-02-28T03:12:06;4.43;;;1.27;;
50363;SDS011;36272;59.400;17.982;2023-02-28T03:40:41;3.67;;;1.00;;
50363;SDS011;36272;59.400;17.982;2023-02-28T03:45:48;2.10;;;1.08;;
50363;SDS011;36272;59.400;17.982;2023-02-28T03:50:55;1.63;;;1.10;;
50363;SDS011;36272;59.400;17.982;2023-02-28T03:56:05;1.83;;;1.00;;
50363;SDS011;36272;59.400;17.982;2023-02-28T04:01:27;2.00;;;1.20;;
50363;SDS011;36272;59.400;17.982;2023-02-28T04:06:38;2.70;;;0.77;;
50363;SDS011;36272;59.400;17.982;2023-02-28T04:11:48;2.70;;;1.00;;
50363;SDS011;36272;59.400;17.982;2023-02-28T04:16:56;1.70;;;0.93;;
50363;SDS011;36272;59.400;17.982;2023-02-28T04:22:08;1.25;;;0.77;;
50363;SDS011;36272;59.400;17.982;2023-02-28T04:27:13;0.55;;;0.55;;
50363;SDS011;36272;59.400;17.982;2023-02-28T04:32:18;1.52;;;0.85;;
50363;SDS011;36272;59.400;17.982;2023-02-28T04:37:20;1.63;;;0.95;;
50363;SDS011;36272;59.400;17.982;2023-02-28T04:42:29;1.60;;;0.90;;
50363;SDS011;36272;59.400;17.982;2023-02-28T04:47:39;1.95;;;0.90;;
50363;SDS011;36272;59.400;17.982;2023-02-28T04:52:44;0.90;;;0.40;;
50363;SDS011;36272;59.400;17.982;2023-02-28T04:57:46;1.02;;;0.80;;
50363;SDS011;36272;59.400;17.982;2023-02-28T05:02:50;0.90;;;0.57;;
50363;SDS011;36272;59.400;17.982;2023-02-28T05:07:52;1.88;;;0.90;;
50363;SDS011;36272;59.400;17.982;2023-02-28T05:12:54;1.52;;;0.90;;
50363;SDS011;36272;59.400;17.982;2023-02-28T05:17:59;1.77;;;1.15;;
50363;SDS011;36272;59.400;17.982;2023-02-28T05:23:01;0.90;;;0.75;;
50363;SDS011;36272;59.400;17.982;2023-02-28T05:28:06;1.70;;;0.88;;
50363;SDS011;36272;59.400;17.982;2023-02-28T05:33:09;1.00;;;0.80;;
50363;SDS011;36272;59.400;17.982;2023-02-28T05:38:15;1.33;;;0.90;;
50363;SDS011;36272;59.400;17.982;2023-02-28T05:43:24;2.83;;;0.95;;
50363;SDS011;36272;59.400;17.982;2023-02-28T05:48:28;3.95;;;1.08;;
50363;SDS011;36272;59.400;17.982;2023-02-28T05:53:30;2.17;;;1.00;;
50363;SDS011;36272;59.400;17.982;2023-02-28T05:58:36;4.18;;;1.10;;
50363;SDS011;36272;59.400;17.982;2023-02-28T06:03:41;2.83;;;1.08;;
50363;SDS011;36272;59.400;17.982;2023-02-28T06:08:49;6.50;;;1.38;;
50363;SDS011;36272;59.400;17.982;2023-02-28T06:13:52;2.65;;;0.95;;
50363;SDS011;36272;59.400;17.982;2023-02-28T06:18:58;0.93;;;0.60;;
50363;SDS011;36272;59.400;17.982;2023-02-28T06:24:01;1.40;;;0.68;;
50363;SDS011;36272;59.400;17.982;2023-02-28T06:29:03;2.58;;;0.90;;
50363;SDS011;36272;59.400;17.982;2023-02-28T06:34:05;2.75;;;0.90;;
50363;SDS011;36272;59.400;17.982;2023-02-28T06:39:07;3.38;;;1.10;;
50363;SDS011;36272;59.400;17.982;2023-02-28T06:44:15;2.92;;;1.02;;
50363;SDS011;36272;59.400;17.982;2023-02-28T06:49:23;2.95;;;0.80;;
50363;SDS011;36272;59.400;17.982;2023-02-28T06:54:26;4.10;;;0.95;;
50363;SDS011;36272;59.400;17.982;2023-02-28T06:59:37;4.65;;;0.77;;
50363;SDS011;36272;59.400;17.982;2023-02-28T07:04:39;2.00;;;1.00;;
50363;SDS011;36272;59.400;17.982;2023-02-28T07:09:41;0.95;;;0.60;;
50363;SDS011;36272;59.400;17.982;2023-02-28T07:14:46;1.57;;;0.70;;
50363;SDS011;36272;59.400;17.982;2023-02-28T07:19:48;1.65;;;0.52;;
50363;SDS011;36272;59.400;17.982;2023-02-28T07:24:50;2.58;;;0.57;;
50363;SDS011;36272;59.400;17.982;2023-02-28T07:29:55;2.93;;;0.90;;
50363;SDS011;36272;59.400;17.982;2023-02-28T07:35:38;2.05;;;0.90;;
50363;SDS011;36272;59.400;17.982;2023-02-28T07:40:30;2.13;;;0.88;;
50363;SDS011;36272;59.400;17.982;2023-02-28T07:45:32;2.45;;;0.57;;
50363;SDS011;36272;59.400;17.982;2023-02-28T07:50:35;1.70;;;0.77;;
50363;SDS011;36272;59.400;17.982;2023-02-28T07:55:37;2.65;;;0.77;;
50363;SDS011;36272;59.400;17.982;2023-02-28T08:00:48;2.75;;;0.73;;
50363;SDS011;36272;59.400;17.982;2023-02-28T08:05:50;2.45;;;0.80;;
50363;SDS011;36272;59.400;17.982;2023-02-28T08:10:53;7.80;;;1.30;;
50363;SDS011;36272;59.400;17.982;2023-02-28T08:15:55;5.18;;;1.02;;
50363;SDS011;36272;59.400;17.982;2023-02-28T08:20:57;5.80;;;0.90;;
50363;SDS011;36272;59.400;17.982;2023-02-28T08:26:00;6.10;;;1.10;;
50363;SDS011;36272;59.400;17.982;2023-02-28T08:31:08;6.63;;;1.10;;
50363;SDS011;36272;59.400;17.982;2023-02-28T08:36:54;10.10;;;1.42;;
50363;SDS011;36272;59.400;17.982;2023-02-28T08:42:25;5.15;;;0.98;;
50363;SDS011;36272;59.400;17.982;2023-02-28T08:47:37;7.35;;;0.90;;
50363;SDS011;36272;59.400;17.982;2023-02-28T08:52:53;7.90;;;1.38;;
50363;SDS011;36272;59.400;17.982;2023-02-28T08:58:07;7.22;;;1.00;;
50363;SDS011;36272;59.400;17.982;2023-02-28T09:15:28;7.13;;;0.82;;
50363;SDS011;36272;59.400;17.982;2023-02-28T10:37:16;2.42;;;1.10;;
50363;SDS011;36272;59.400;17.982;2023-02-28T11:10:55;2.10;;;0.75;;
50363;SDS011;36272;59.400;17.982;2023-02-28T11:16:13;2.60;;;0.73;;
50363;SDS011;36272;59.400;17.982;2023-02-28T11:22:00;3.58;;;0.80;;
50363;SDS011;36272;59.400;17.982;2023-02-28T11:32:27;2.22;;;0.82;;
50363;SDS011;36272;59.400;17.982;2023-02-28T11:37:33;3.50;;;0.88;;
50363;SDS011;36272;59.400;17.982;2023-02-28T15:53:08;4.15;;;1.27;;
50363;SDS011;36272;59.400;17.982;2023-02-28T15:58:21;10.18;;;1.35;;
50363;SDS011;36272;59.400;17.982;2023-02-28T16:03:26;6.45;;;1.50;;
50363;SDS011;36272;59.400;17.982;2023-02-28T16:19:15;2.85;;;1.35;;
50363;SDS011;36272;59.400;17.982;2023-02-28T16:31:16;7.43;;;1.67;;
50363;SDS011;36272;59.400;17.982;2023-02-28T16:36:30;5.43;;;1.23;;
50363;SDS011;36272;59.400;17.982;2023-02-28T16:49:12;4.47;;;1.40;;
50363;SDS011;36272;59.400;17.982;2023-02-28T16:54:23;6.57;;;2.00;;
50363;SDS011;36272;59.400;17.982;2023-02-28T16:59:30;3.80;;;1.20;;
50363;SDS011;36272;59.400;17.982;2023-02-28T17:09:59;2.67;;;1.20;;
50363;SDS011;36272;59.400;17.982;2023-02-28T17:15:12;5.53;;;1.52;;
50363;SDS011;36272;59.400;17.982;2023-02-28T17:20:41;5.80;;;1.00;;
50363;SDS011;36272;59.400;17.982;2023-02-28T17:25:49;5.40;;;1.40;;
50363;SDS011;36272;59.400;17.982;2023-02-28T17:36:56;4.93;;;1.20;;
50363;SDS011;36272;59.400;17.982;2023-02-28T17:42:00;2.47;;;1.15;;
50363;SDS011;36272;59.400;17.982;2023-02-28T17:47:11;2.70;;;1.33;;
50363;SDS011;36272;59.400;17.982;2023-02-28T17:58:52;8.30;;;1.45;;
50363;SDS011;36272;59.400;17.982;2023-02-28T18:09:40;6.80;;;1.23;;
50363;SDS011;36272;59.400;17.982;2023-02-28T18:26:55;6.13;;;1.65;;
50363;SDS011;36272;59.400;17.982;2023-02-28T19:20:07;5.95;;;2.72;;
50363;SDS011;36272;59.400;17.982;2023-02-28T19:25:11;3.67;;;1.38;;
50363;SDS011;36272;59.400;17.982;2023-02-28T19:30:12;5.00;;;1.35;;
50363;SDS011;36272;59.400;17.982;2023-02-28T19:35:14;2.95;;;1.58;;
50363;SDS011;36272;59.400;17.982;2023-02-28T19:40:16;2.55;;;1.35;;
50363;SDS011;36272;59.400;17.982;2023-02-28T19:45:18;2.55;;;1.30;;
50363;SDS011;36272;59.400;17.982;2023-02-28T19:50:20;2.92;;;1.30;;
50363;SDS011;36272;59.400;17.982;2023-02-28T19:55:22;2.00;;;1.08;;
50363;SDS011;36272;59.400;17.982;2023-02-28T20:00:27;4.70;;;1.42;;
50363;SDS011;36272;59.400;17.982;2023-02-28T20:10:40;4.45;;;1.30;;
50363;SDS011;36272;59.400;17.982;2023-02-28T20:43:05;3.97;;;1.95;;
